createdAt,value
2023-04-08T00:00:09.522Z,102159.47
2023-04-08T00:02:43.195Z,102174.69
2023-04-08T00:05:13.188Z,102175.41
2023-04-08T00:07:41.478Z,102147.75
2023-04-08T00:10:11.453Z,102174.53
2023-04-08T00:12:39.801Z,102173.69
2023-04-08T00:15:08.887Z,102177.97
2023-04-08T00:17:37.381Z,102096.16
2023-04-08T00:20:06.898Z,102176.19
2023-04-08T00:22:37.505Z,102169.03
2023-04-08T00:25:09.388Z,102169.94
2023-04-08T00:27:37.817Z,102168.16
2023-04-08T00:30:07.931Z,102171.75
2023-04-08T00:32:36.481Z,102172.59
2023-04-08T00:35:05.589Z,102175.28
2023-04-08T00:37:34.597Z,102176.22
2023-04-08T00:40:04.416Z,102177.97
2023-04-08T00:42:32.814Z,102180.63
2023-04-08T00:45:01.170Z,102177.06
2023-04-08T00:47:29.618Z,102146.78
2023-04-08T00:49:58.128Z,102178.69
2023-04-08T00:52:26.472Z,102173.44
2023-04-08T00:54:54.816Z,102177.91
2023-04-08T00:57:24.579Z,102180.69
2023-04-08T00:59:53.053Z,102180.75
2023-04-08T01:02:33.043Z,102185.16
2023-04-08T01:05:06.545Z,102183.53
2023-04-08T01:07:38.846Z,102189.69
2023-04-08T01:10:16.438Z,102182.69
2023-04-08T01:12:59.558Z,102185.22
2023-04-08T01:15:30.280Z,102185.28
2023-04-08T01:18:01.726Z,102190.59
2023-04-08T01:20:31.924Z,102187.03
2023-04-08T01:23:12.282Z,102109.78
2023-04-08T01:25:41.266Z,102187.09
2023-04-08T01:28:16.351Z,102188.91
2023-04-08T01:30:46.312Z,102189.81
2023-04-08T01:33:18.798Z,102180.88
2023-04-08T01:35:47.991Z,102189.78
2023-04-08T01:38:19.600Z,102192.47
2023-04-08T01:40:50.880Z,102199.53
2023-04-08T01:43:21.280Z,102192.47
2023-04-08T01:45:54.507Z,102201.28
2023-04-08T01:48:24.130Z,102078.66
2023-04-08T01:50:54.439Z,102200.41
2023-04-08T01:53:23.392Z,102196.00
2023-04-08T01:55:58.771Z,102199.56
2023-04-08T01:58:34.249Z,102175.63
2023-04-08T02:01:03.448Z,102188.97
2023-04-08T02:03:32.841Z,102192.34
2023-04-08T02:06:01.487Z,102189.78
2023-04-08T02:08:29.734Z,102194.22
2023-04-08T02:10:58.097Z,102187.09
2023-04-08T02:13:27.928Z,102188.91
2023-04-08T02:16:06.015Z,102199.50
2023-04-08T02:18:38.846Z,102191.63
2023-04-08T02:21:12.957Z,102190.72
2023-04-08T02:23:42.739Z,102189.84
2023-04-08T02:26:16.053Z,102190.66
2023-04-08T02:28:46.184Z,102188.91
2023-04-08T02:31:16.047Z,102195.13
2023-04-08T02:33:47.877Z,102193.31
2023-04-08T02:36:17.129Z,102197.75
2023-04-08T02:38:49.911Z,102189.75
2023-04-08T02:41:18.765Z,102191.44
2023-04-08T02:43:48.400Z,102188.78
2023-04-08T02:46:16.773Z,102204.72
2023-04-08T02:48:45.243Z,102204.72
2023-04-08T02:51:13.910Z,102202.06
2023-04-08T02:53:42.254Z,102208.25
2023-04-08T02:56:12.366Z,102202.88
2023-04-08T02:58:40.772Z,102201.13
2023-04-08T03:01:10.820Z,102210.84
2023-04-08T03:03:39.394Z,102190.38
2023-04-08T03:06:07.848Z,102205.47
2023-04-08T03:08:36.143Z,102194.88
2023-04-08T03:11:04.397Z,102207.22
2023-04-08T03:13:32.799Z,102225.81
2023-04-08T03:16:01.208Z,102224.03
2023-04-08T03:18:31.247Z,102214.28
2023-04-08T03:20:59.604Z,102214.25
2023-04-08T03:23:27.978Z,102222.09
2023-04-08T03:25:56.352Z,102138.44
2023-04-08T03:28:24.630Z,102222.88
2023-04-08T03:30:53.069Z,102221.09
2023-04-08T03:33:21.357Z,102230.78
2023-04-08T03:35:51.112Z,102223.69
2023-04-08T03:38:19.359Z,102229.06
2023-04-08T03:40:47.799Z,102232.59
2023-04-08T03:43:16.563Z,102232.63
2023-04-08T03:45:44.817Z,102240.59
2023-04-08T03:48:13.116Z,102237.91
2023-04-08T03:50:41.450Z,102244.09
2023-04-08T03:53:12.876Z,102246.72
2023-04-08T03:55:41.241Z,102221.84
2023-04-08T03:58:09.538Z,102242.34
2023-04-08T04:00:38.259Z,102244.97
2023-04-08T04:03:06.787Z,102243.19
2023-04-08T04:05:35.456Z,102252.03
2023-04-08T04:08:03.858Z,102248.47
2023-04-08T04:10:33.804Z,102267.03
2023-04-08T04:13:02.174Z,102133.53
2023-04-08T04:15:30.477Z,102251.03
2023-04-08T04:17:58.868Z,102250.13
2023-04-08T04:20:29.152Z,102255.63
2023-04-08T04:22:57.530Z,102256.50
2023-04-08T04:25:26.223Z,102257.44
2023-04-08T04:27:55.889Z,102260.91
2023-04-08T04:30:24.561Z,102262.63
2023-04-08T04:32:52.950Z,102261.72
2023-04-08T04:35:21.439Z,102259.81
2023-04-08T04:37:51.862Z,102262.47
2023-04-08T04:40:20.471Z,102266.88
2023-04-08T04:42:48.782Z,102274.00
2023-04-08T04:45:18.688Z,102276.72
2023-04-08T04:47:47.058Z,102270.50
2023-04-08T04:50:15.432Z,102276.66
2023-04-08T04:52:43.806Z,102275.78
2023-04-08T04:55:12.146Z,102281.03
2023-04-08T04:57:40.571Z,102267.59
2023-04-08T05:00:11.800Z,102261.34
2023-04-08T05:02:41.675Z,102284.44
2023-04-08T05:05:10.786Z,102281.78
2023-04-08T05:07:39.797Z,102286.34
2023-04-08T05:10:09.136Z,102286.41
2023-04-08T05:12:38.746Z,102291.72
2023-04-08T05:15:08.779Z,102291.81
2023-04-08T05:17:37.139Z,102300.69
2023-04-08T05:20:08.734Z,102301.50
2023-04-08T05:22:37.062Z,102294.63
2023-04-08T05:25:06.375Z,102301.69
2023-04-08T05:27:35.000Z,102266.13
2023-04-08T05:30:03.319Z,102301.75
2023-04-08T05:32:31.723Z,102286.66
2023-04-08T05:35:00.034Z,102303.44
2023-04-08T05:37:29.736Z,102314.94
2023-04-08T05:39:58.039Z,102289.16
2023-04-08T05:42:27.099Z,102307.06
2023-04-08T05:44:55.395Z,102320.31
2023-04-08T05:47:23.709Z,102313.09
2023-04-08T05:49:53.557Z,102310.34
2023-04-08T05:52:22.435Z,102319.25
2023-04-08T05:54:52.111Z,102328.13
2023-04-08T05:57:20.589Z,102336.91
2023-04-08T05:59:48.840Z,102328.09
2023-04-08T06:02:17.246Z,102326.28
2023-04-08T06:04:45.889Z,102344.13
2023-04-08T06:07:14.354Z,102339.72
2023-04-08T06:09:43.827Z,102347.69
2023-04-08T06:12:15.193Z,102343.28
2023-04-08T06:14:43.468Z,102345.09
2023-04-08T06:17:11.855Z,102349.63
2023-04-08T06:19:40.439Z,102355.84
2023-04-08T06:22:08.787Z,102358.47
2023-04-08T06:24:37.132Z,102357.66
2023-04-08T06:27:05.549Z,102366.50
2023-04-08T06:29:35.526Z,102370.97
2023-04-08T06:32:03.901Z,102370.81
2023-04-08T06:34:32.231Z,102363.69
2023-04-08T06:37:00.821Z,102381.53
2023-04-08T06:39:29.071Z,102387.72
2023-04-08T06:41:58.140Z,102390.34
2023-04-08T06:44:50.765Z,102396.47
2023-04-08T06:47:19.164Z,102400.94
2023-04-08T06:49:47.622Z,102398.28
2023-04-08T06:52:15.961Z,102392.03
2023-04-08T06:54:44.412Z,102206.66
2023-04-08T06:57:12.752Z,102399.03
2023-04-08T06:59:41.133Z,102369.53
2023-04-08T07:02:10.870Z,102406.88
2023-04-08T07:04:39.106Z,102413.13
2023-04-08T07:07:07.461Z,102413.13
2023-04-08T07:09:36.991Z,102415.75
2023-04-08T07:12:05.515Z,102415.00
2023-04-08T07:14:35.939Z,102405.22
2023-04-08T07:17:04.471Z,102416.84
2023-04-08T07:19:34.193Z,102417.84
2023-04-08T07:22:02.667Z,102422.06
2023-04-08T07:24:31.366Z,102429.28
2023-04-08T07:27:03.049Z,102439.91
2023-04-08T07:29:31.720Z,102431.94
2023-04-08T07:32:00.668Z,102414.00
2023-04-08T07:34:29.002Z,102434.94
2023-04-08T07:36:58.696Z,102434.75
2023-04-08T07:39:27.001Z,102434.75
2023-04-08T07:41:55.324Z,102429.41
2023-04-08T07:44:23.612Z,102442.16
2023-04-08T07:46:52.014Z,102427.19
2023-04-08T07:49:20.386Z,102439.88
2023-04-08T07:51:48.656Z,102444.31
2023-04-08T07:54:18.361Z,102438.41
2023-04-08T07:56:46.776Z,102441.91
2023-04-08T07:59:15.401Z,102448.22
2023-04-08T08:01:43.823Z,102444.91
2023-04-08T08:04:12.303Z,102451.22
2023-04-08T08:06:40.895Z,102450.56
2023-04-08T08:09:09.118Z,102448.03
2023-04-08T08:11:38.796Z,102456.88
2023-04-08T08:14:08.013Z,102457.91
2023-04-08T08:16:36.546Z,102461.47
2023-04-08T08:19:07.237Z,102462.09
2023-04-08T08:21:39.385Z,102458.03
2023-04-08T08:24:07.938Z,102457.19
2023-04-08T08:26:38.395Z,102460.75
2023-04-08T08:29:08.954Z,102452.09
2023-04-08T08:31:37.283Z,102469.03
2023-04-08T08:34:05.901Z,102469.16
2023-04-08T08:36:34.772Z,102476.41
2023-04-08T08:39:03.659Z,102480.06
2023-04-08T08:41:36.577Z,102448.94
2023-04-08T08:44:08.298Z,102478.28
2023-04-08T08:46:36.821Z,102481.94
2023-04-08T08:49:05.938Z,102483.78
2023-04-08T08:51:34.356Z,102478.56
2023-04-08T08:54:04.749Z,102481.13
2023-04-08T08:56:35.048Z,102477.63
2023-04-08T08:59:03.366Z,102481.25
2023-04-08T09:01:35.849Z,102470.66
2023-04-08T09:04:17.134Z,102475.16
2023-04-08T09:06:47.735Z,102365.75
2023-04-08T09:09:16.256Z,102485.78
2023-04-08T09:11:46.313Z,102488.34
2023-04-08T09:14:22.561Z,102487.41
2023-04-08T09:16:53.047Z,102489.91
2023-04-08T09:19:21.679Z,102490.72
2023-04-08T09:22:08.368Z,102484.34
2023-04-08T09:24:38.085Z,102493.53
2023-04-08T09:27:06.825Z,102492.41
2023-04-08T09:29:38.257Z,102429.53
2023-04-08T09:32:08.959Z,102494.19
2023-04-08T09:34:37.677Z,102466.44
2023-04-08T09:37:05.998Z,102493.16
2023-04-08T09:39:34.267Z,102496.84
2023-04-08T09:42:10.597Z,102492.06
2023-04-08T09:44:39.884Z,102490.06
2023-04-08T09:47:16.255Z,102504.97
2023-04-08T09:49:51.217Z,102508.28
2023-04-08T09:52:26.252Z,102504.19
2023-04-08T09:55:01.515Z,102502.09
2023-04-08T09:57:41.646Z,102481.34
2023-04-08T10:00:14.524Z,102492.69
2023-04-08T10:02:56.686Z,102503.19
2023-04-08T10:05:26.667Z,102484.81
2023-04-08T10:07:57.110Z,102499.47
2023-04-08T10:10:27.129Z,102495.94
2023-04-08T10:12:55.813Z,102502.16
2023-04-08T10:15:27.161Z,102499.66
2023-04-08T10:17:58.311Z,102497.63
2023-04-08T10:20:46.831Z,102493.28
2023-04-08T10:23:16.862Z,102501.25
2023-04-08T10:25:48.047Z,102479.28
2023-04-08T10:28:27.241Z,102494.06
2023-04-08T10:30:57.489Z,102499.06
2023-04-08T10:33:36.561Z,102498.56
2023-04-08T10:36:12.623Z,102495.84
2023-04-08T10:38:42.607Z,102482.53
2023-04-08T10:41:14.669Z,102500.59
2023-04-08T10:43:44.106Z,102495.16
2023-04-08T10:46:12.888Z,102499.03
2023-04-08T10:48:42.746Z,102504.41
2023-04-08T10:51:12.146Z,102506.13
2023-04-08T10:53:41.211Z,102504.13
2023-04-08T10:56:13.328Z,102505.41
2023-04-08T10:58:50.545Z,102503.44
2023-04-08T11:01:19.438Z,102387.97
2023-04-08T11:03:49.798Z,102494.28
2023-04-08T11:06:19.544Z,102499.00
2023-04-08T11:08:48.181Z,102510.09
2023-04-08T11:11:16.636Z,102505.13
2023-04-08T11:13:53.260Z,102498.56
2023-04-08T11:16:23.428Z,102483.50
2023-04-08T11:18:55.543Z,102496.72
2023-04-08T11:21:29.096Z,102488.47
2023-04-08T11:23:57.701Z,102482.25
2023-04-08T11:26:27.593Z,102489.25
2023-04-08T11:28:57.545Z,102483.06
2023-04-08T11:31:26.205Z,102477.56
2023-04-08T11:33:56.764Z,102482.84
2023-04-08T11:36:26.000Z,102485.59
2023-04-08T11:38:55.958Z,102488.88
2023-04-08T11:41:24.362Z,102487.59
2023-04-08T11:43:54.376Z,102484.34
2023-04-08T11:46:23.201Z,102487.53
2023-04-08T11:49:10.294Z,102488.91
2023-04-08T11:51:56.391Z,102494.88
2023-04-08T11:54:29.003Z,102502.63
2023-04-08T11:56:58.241Z,102484.66
2023-04-08T11:59:28.979Z,102485.50
2023-04-08T12:01:58.041Z,102495.09
2023-04-08T12:04:28.179Z,102483.81
2023-04-08T12:06:58.362Z,102481.84
2023-04-08T12:09:27.455Z,102490.75
2023-04-08T12:11:56.644Z,102487.38
2023-04-08T12:14:27.697Z,102486.63
2023-04-08T12:16:56.861Z,102489.38
2023-04-08T12:19:25.264Z,102482.22
2023-04-08T12:21:54.893Z,102481.28
2023-04-08T12:24:23.138Z,102476.78
2023-04-08T12:26:51.492Z,102472.38
2023-04-08T12:29:19.804Z,102473.34
2023-04-08T12:31:48.147Z,102473.25
2023-04-08T12:34:16.810Z,102474.16
2023-04-08T12:36:46.081Z,102458.16
2023-04-08T12:39:15.785Z,102460.03
2023-04-08T12:41:44.126Z,102464.47
2023-04-08T12:44:12.719Z,102443.97
2023-04-08T12:46:41.199Z,102444.84
2023-04-08T12:49:09.875Z,102463.56
2023-04-08T12:51:38.260Z,102458.16
2023-04-08T12:54:06.699Z,102459.88
2023-04-08T12:56:36.492Z,102464.16
2023-04-08T12:59:04.838Z,102464.94
2023-04-08T13:01:33.200Z,102357.69
2023-04-08T13:04:01.634Z,102466.94
2023-04-08T13:06:30.058Z,102459.91
2023-04-08T13:08:58.343Z,102469.69
2023-04-08T13:11:27.080Z,102462.59
2023-04-08T13:13:56.804Z,102463.50
2023-04-08T13:16:25.193Z,102466.91
2023-04-08T13:18:53.715Z,102463.38
2023-04-08T13:21:22.155Z,102453.78
2023-04-08T13:23:50.578Z,102432.47
2023-04-08T13:26:18.961Z,102448.47
2023-04-08T13:28:56.736Z,102439.41
2023-04-08T13:31:27.350Z,102432.31
2023-04-08T13:33:58.190Z,102445.66
2023-04-08T13:36:28.899Z,102446.47
2023-04-08T13:38:57.538Z,102443.78
2023-04-08T13:41:28.047Z,102424.31
2023-04-08T13:43:56.694Z,102441.84
2023-04-08T13:46:26.378Z,102448.72
2023-04-08T13:48:54.881Z,102362.66
2023-04-08T13:51:23.274Z,102444.75
2023-04-08T13:53:51.984Z,102439.19
2023-04-08T13:56:21.028Z,102443.34
2023-04-08T13:58:56.493Z,102443.97
2023-04-08T14:01:27.046Z,102443.69
2023-04-08T14:03:55.663Z,102445.19
2023-04-08T14:06:24.028Z,102452.19
2023-04-08T14:08:52.473Z,102452.03
2023-04-08T14:11:21.326Z,102450.97
2023-04-08T14:13:49.730Z,102454.38
2023-04-08T14:16:18.137Z,102445.19
2023-04-08T14:18:47.922Z,102445.91
2023-04-08T14:21:18.171Z,102426.09
2023-04-08T14:23:46.732Z,102462.72
2023-04-08T14:26:15.057Z,102431.28
2023-04-08T14:28:43.425Z,102439.44
2023-04-08T14:31:12.537Z,102432.28
2023-04-08T14:33:42.157Z,102429.63
2023-04-08T14:36:12.088Z,102441.16
2023-04-08T14:38:40.485Z,102444.38
2023-04-08T14:41:08.806Z,102423.09
2023-04-08T14:43:37.102Z,102434.31
2023-04-08T14:46:05.540Z,102435.69
2023-04-08T14:48:33.952Z,102439.91
2023-04-08T14:51:02.456Z,102413.84
2023-04-08T14:53:32.258Z,102429.69
2023-04-08T14:56:00.870Z,102429.75
2023-04-08T14:58:29.293Z,102432.00
2023-04-08T15:00:57.644Z,102427.56
2023-04-08T15:03:26.030Z,102427.38
2023-04-08T15:05:57.643Z,102429.94
2023-04-08T15:08:26.141Z,102424.63
2023-04-08T15:10:55.823Z,102427.56
2023-04-08T15:13:24.528Z,102418.41
2023-04-08T15:15:52.870Z,102421.06
2023-04-08T15:18:21.235Z,102420.75
2023-04-08T15:20:49.535Z,102421.50
2023-04-08T15:23:18.057Z,102413.25
2023-04-08T15:25:46.450Z,102417.47
2023-04-08T15:28:16.227Z,102400.38
2023-04-08T15:30:45.142Z,102410.72
2023-04-08T15:33:13.572Z,102411.44
2023-04-08T15:35:42.089Z,102412.31
2023-04-08T15:38:10.421Z,102418.34
2023-04-08T15:40:38.824Z,102428.13
2023-04-08T15:43:10.097Z,102418.28
2023-04-08T15:45:44.423Z,102420.13
2023-04-08T15:48:13.266Z,102422.28
2023-04-08T15:50:42.120Z,102434.75
2023-04-08T15:53:10.550Z,102409.75
2023-04-08T15:55:40.034Z,102422.50
2023-04-08T15:58:08.774Z,102320.34
2023-04-08T16:00:37.408Z,102410.53
2023-04-08T16:03:08.947Z,102398.22
2023-04-08T16:05:39.721Z,102422.22
2023-04-08T16:08:07.848Z,102407.03
2023-04-08T16:10:36.294Z,102416.91
2023-04-08T16:13:04.722Z,102403.88
2023-04-08T16:15:34.097Z,102412.63
2023-04-08T16:18:03.449Z,102414.28
2023-04-08T16:20:33.194Z,102407.88
2023-04-08T16:23:01.701Z,102405.13
2023-04-08T16:25:30.062Z,102401.56
2023-04-08T16:27:58.420Z,102398.84
2023-04-08T16:30:26.821Z,102413.91
2023-04-08T16:32:55.338Z,102432.72
2023-04-08T16:35:23.723Z,102402.47
2023-04-08T16:37:53.371Z,102413.09
2023-04-08T16:40:21.731Z,102414.84
2023-04-08T16:42:50.036Z,102414.06
2023-04-08T16:45:18.465Z,102427.34
2023-04-08T16:47:46.901Z,102422.84
2023-04-08T16:50:15.743Z,102420.16
2023-04-08T16:52:49.374Z,102428.28
2023-04-08T16:55:20.045Z,102433.59
2023-04-08T16:57:48.676Z,102428.31
2023-04-08T17:00:20.509Z,102405.22
2023-04-08T17:02:49.845Z,102431.91
2023-04-08T17:05:18.602Z,102428.38
2023-04-08T17:07:46.933Z,102424.94
2023-04-08T17:10:15.436Z,102439.06
2023-04-08T17:12:45.182Z,102434.69
2023-04-08T17:15:13.800Z,102428.41
2023-04-08T17:17:42.169Z,102428.47
2023-04-08T17:20:12.154Z,102435.63
2023-04-08T17:22:40.892Z,102400.94
2023-04-08T17:25:10.660Z,102430.28
2023-04-08T17:27:39.022Z,102433.00
2023-04-08T17:30:11.566Z,102438.44
2023-04-08T17:32:40.151Z,102436.63
2023-04-08T17:35:09.694Z,102421.63
2023-04-08T17:37:38.037Z,102435.88
2023-04-08T17:40:08.567Z,102443.03
2023-04-08T17:42:36.998Z,102439.56
2023-04-08T17:45:07.145Z,102436.88
2023-04-08T17:47:36.883Z,102437.78
2023-04-08T17:50:06.568Z,102435.13
2023-04-08T17:52:35.413Z,102429.78
2023-04-08T17:55:03.867Z,102430.66
2023-04-08T17:57:32.425Z,102428.00
2023-04-08T18:00:01.610Z,102428.88
2023-04-08T18:02:30.211Z,102433.34
2023-04-08T18:05:00.807Z,102420.00
2023-04-08T18:07:29.143Z,102439.56
2023-04-08T18:09:57.431Z,102432.44
2023-04-08T18:12:27.038Z,102439.56
2023-04-08T18:14:55.418Z,102445.78
2023-04-08T18:17:24.211Z,102443.97
2023-04-08T18:19:52.602Z,102441.28
2023-04-08T18:22:22.614Z,102446.66
2023-04-08T18:24:51.004Z,102445.78
2023-04-08T18:27:19.367Z,102447.59
2023-04-08T18:29:47.761Z,102438.66
2023-04-08T18:32:16.137Z,102447.56
2023-04-08T18:34:44.410Z,102446.69
2023-04-08T18:37:13.121Z,102451.13
2023-04-08T18:39:42.896Z,102452.91
2023-04-08T18:42:11.321Z,102460.91
2023-04-08T18:44:39.675Z,102466.25
2023-04-08T18:47:08.447Z,102467.13
2023-04-08T18:49:38.436Z,102460.00
2023-04-08T18:52:08.348Z,102468.91
2023-04-08T18:54:36.764Z,102460.91
2023-04-08T18:57:06.476Z,102472.47
2023-04-08T18:59:35.252Z,102471.56
2023-04-08T19:02:03.790Z,102459.97
2023-04-08T19:04:33.396Z,102474.22
2023-04-08T19:07:01.857Z,102480.44
2023-04-08T19:09:30.144Z,102486.59
2023-04-08T19:11:58.536Z,102482.16
2023-04-08T19:14:28.622Z,102483.94
2023-04-08T19:16:56.979Z,102475.91
2023-04-08T19:19:25.284Z,102481.25
2023-04-08T19:21:53.577Z,102479.44
2023-04-08T19:24:21.901Z,102488.38
2023-04-08T19:26:51.286Z,102494.56
2023-04-08T19:29:22.951Z,102517.66
2023-04-08T19:31:52.839Z,102496.34
2023-04-08T19:34:21.160Z,102493.69
2023-04-08T19:36:49.472Z,102506.09
2023-04-08T19:39:18.455Z,102499.00
2023-04-08T19:41:47.135Z,102502.56
2023-04-08T19:44:15.625Z,102499.03
2023-04-08T19:46:43.960Z,102507.91
2023-04-08T19:49:13.700Z,102499.88
2023-04-08T19:51:42.100Z,102497.19
2023-04-08T19:54:10.355Z,102500.72
2023-04-08T19:56:38.639Z,102498.97
2023-04-08T19:59:06.968Z,102498.97
2023-04-08T20:01:35.911Z,102495.44
2023-04-08T20:04:04.626Z,102498.97
2023-04-08T20:06:34.767Z,102497.16
2023-04-08T20:09:05.669Z,102492.75
2023-04-08T20:11:34.552Z,102495.41
2023-04-08T20:14:04.318Z,102491.84
2023-04-08T20:16:32.755Z,102499.84
2023-04-08T20:19:01.172Z,102452.66
2023-04-08T20:21:29.463Z,102502.50
2023-04-08T20:23:59.092Z,102498.97
2023-04-08T20:26:27.492Z,102506.94
2023-04-08T20:28:58.032Z,102502.44
2023-04-08T20:31:27.913Z,102508.63
2023-04-08T20:33:56.239Z,102506.00
2023-04-08T20:36:24.955Z,102498.88
2023-04-08T20:38:53.457Z,102506.00
2023-04-08T20:41:25.903Z,102504.19
2023-04-08T20:43:55.104Z,102506.84
2023-04-08T20:46:24.515Z,102504.16
2023-04-08T20:48:53.319Z,102504.16
2023-04-08T20:51:22.081Z,102503.25
2023-04-08T20:53:50.803Z,102495.22
2023-04-08T20:56:19.113Z,102491.69
2023-04-08T20:58:48.861Z,102495.22
2023-04-08T21:01:17.162Z,102496.06
2023-04-08T21:03:45.555Z,102492.44
2023-04-08T21:06:17.801Z,102495.13
2023-04-08T21:08:46.800Z,102466.56
2023-04-08T21:11:15.500Z,102484.44
2023-04-08T21:13:45.518Z,102486.16
2023-04-08T21:16:17.260Z,102498.53
2023-04-08T21:18:45.613Z,102491.41
2023-04-08T21:21:14.017Z,102494.03
2023-04-08T21:23:42.333Z,102496.72
2023-04-08T21:26:13.794Z,102492.25
2023-04-08T21:28:42.189Z,102487.75
2023-04-08T21:31:11.103Z,102486.03
2023-04-08T21:33:40.937Z,102484.19
2023-04-08T21:36:09.374Z,102486.91
2023-04-08T21:38:37.730Z,102477.06
2023-04-08T21:41:06.249Z,102484.13
2023-04-08T21:43:34.625Z,102488.59
2023-04-08T21:46:03.146Z,102465.44
2023-04-08T21:48:31.665Z,102492.06
2023-04-08T21:51:01.470Z,102488.44
2023-04-08T21:53:29.875Z,102497.28
2023-04-08T21:55:58.215Z,102475.00
2023-04-08T21:58:28.172Z,102490.13
2023-04-08T22:00:56.620Z,102490.91
2023-04-08T22:03:25.041Z,102490.88
2023-04-08T22:05:53.449Z,102478.41
2023-04-08T22:08:23.142Z,102495.31
2023-04-08T22:10:51.817Z,102486.38
2023-04-08T22:13:20.656Z,102471.06
2023-04-08T22:15:49.012Z,102481.00
2023-04-08T22:18:17.334Z,102497.84
2023-04-08T22:20:45.646Z,102491.69
2023-04-08T22:23:13.949Z,102492.53
2023-04-08T22:25:43.659Z,102495.19
2023-04-08T22:28:13.253Z,102488.06
2023-04-08T22:30:41.686Z,102495.19
2023-04-08T22:33:09.995Z,102493.38
2023-04-08T22:35:38.811Z,102471.13
2023-04-08T22:38:07.104Z,102419.50
2023-04-08T22:40:37.455Z,102479.16
2023-04-08T22:43:07.144Z,102487.16
2023-04-08T22:45:37.551Z,102490.72
2023-04-08T22:48:06.569Z,102490.63
2023-04-08T22:50:34.932Z,102490.63
2023-04-08T22:53:03.762Z,102481.75
2023-04-08T22:55:32.231Z,102480.84
2023-04-08T22:58:00.608Z,102480.78
2023-04-08T23:00:30.692Z,102476.38
2023-04-08T23:03:00.647Z,102467.41
2023-04-08T23:05:29.090Z,102477.19
2023-04-08T23:07:57.372Z,102467.47
2023-04-08T23:10:25.729Z,102470.09
2023-04-08T23:12:54.092Z,102470.97
2023-04-08T23:15:22.394Z,102461.13
2023-04-08T23:17:52.110Z,102467.41
2023-04-08T23:20:20.597Z,102459.25
2023-04-08T23:22:48.986Z,102459.25
2023-04-08T23:25:17.314Z,102452.19
2023-04-08T23:27:46.063Z,102444.16
2023-04-08T23:30:14.429Z,102441.41
2023-04-08T23:32:42.856Z,102443.09
2023-04-08T23:35:12.685Z,102449.22
2023-04-08T23:37:40.909Z,102439.28
2023-04-08T23:40:11.016Z,102308.19
2023-04-08T23:42:39.356Z,102438.34
2023-04-08T23:45:08.753Z,102438.16
2023-04-08T23:47:37.133Z,102440.00
2023-04-08T23:50:06.771Z,102439.06
2023-04-08T23:52:37.380Z,102430.19
2023-04-08T23:55:06.689Z,102423.06
2023-04-08T23:57:35.046Z,102433.63
